Time;durP1;ratioP1;P1;durP2;ratioP2;P2;SDS_P1;SDS_P2;PMS_P1;PMS_P2;Temp;Humidity;BMP_temperature;BMP_pressure;BME280_temperature;BME280_humidity;BME280_pressure;Samples;Min_cycle;Max_cycle;Signal;HPM_P1;HPM_P2
2023/08/04 00:00:11;;;;;;;1.45;0.50;;;16.60;99.90;;;;;;5011641;28;20038;-76
2023/08/04 00:02:37;;;;;;;0.63;0.50;;;16.60;99.90;;;;;;5009858;28;20044;-76
2023/08/04 00:05:05;;;;;;;1.25;0.70;;;16.50;99.90;;;;;;5026688;28;20531;-77
2023/08/04 00:07:33;;;;;;;2.75;1.70;;;16.50;99.90;;;;;;5026595;28;20402;-76
2023/08/04 00:09:58;;;;;;;1.17;0.85;;;16.50;99.90;;;;;;5026678;28;20041;-76
2023/08/04 00:12:24;;;;;;;0.77;0.45;;;16.50;99.90;;;;;;5010510;28;20121;-76
2023/08/04 00:14:50;;;;;;;1.50;0.50;;;16.60;99.90;;;;;;5011502;28;20061;-76
2023/08/04 00:17:16;;;;;;;1.35;0.65;;;16.60;99.90;;;;;;5011609;28;20026;-76
2023/08/04 00:19:42;;;;;;;1.10;0.50;;;16.60;99.90;;;;;;5011294;28;20145;-76
2023/08/04 00:22:08;;;;;;;1.02;0.63;;;16.60;99.90;;;;;;5026632;28;20026;-76
2023/08/04 00:24:34;;;;;;;0.40;0.32;;;16.60;99.90;;;;;;5025605;28;20507;-76
2023/08/04 00:27:01;;;;;;;1.67;0.80;;;16.60;99.90;;;;;;5026005;28;20493;-76
2023/08/04 00:29:27;;;;;;;3.33;0.75;;;16.60;99.90;;;;;;4991977;28;20402;-76
2023/08/04 00:31:53;;;;;;;1.35;0.47;;;16.70;99.90;;;;;;4990003;28;20023;-76
2023/08/04 00:34:19;;;;;;;3.50;0.90;;;16.80;99.90;;;;;;4989425;28;20038;-76
2023/08/04 00:36:46;;;;;;;6.20;0.45;;;16.70;99.90;;;;;;4991274;28;20045;-75
2023/08/04 00:39:14;;;;;;;3.35;0.88;;;16.70;99.90;;;;;;4990157;28;20041;-76
2023/08/04 00:41:40;;;;;;;1.73;0.45;;;16.60;99.90;;;;;;4990174;28;20036;-76
2023/08/04 00:44:06;;;;;;;0.98;0.50;;;16.70;99.90;;;;;;4989087;28;20026;-76
2023/08/04 00:46:32;;;;;;;1.40;0.55;;;16.70;99.90;;;;;;4993388;28;20030;-75
2023/08/04 00:49:01;;;;;;;3.67;0.70;;;16.80;99.90;;;;;;4994009;28;20549;-75
2023/08/04 00:51:27;;;;;;;0.90;0.70;;;16.80;99.90;;;;;;4994369;28;20035;-75
2023/08/04 00:53:53;;;;;;;2.20;0.75;;;16.70;99.90;;;;;;4993285;28;20042;-75
2023/08/04 00:56:20;;;;;;;0.68;0.60;;;16.80;99.90;;;;;;4995087;28;20030;-75
2023/08/04 00:58:46;;;;;;;2.38;0.90;;;16.70;99.90;;;;;;4993871;28;20138;-75
2023/08/04 01:01:11;;;;;;;1.95;1.13;;;16.70;99.90;;;;;;4993924;28;20099;-74
2023/08/04 01:03:39;;;;;;;3.63;0.77;;;16.60;99.90;;;;;;4994169;28;20034;-75
2023/08/04 01:06:23;;;;;;;1.58;0.80;;;16.60;99.90;;;;;;4993196;28;20092;-75
2023/08/04 01:09:03;;;;;;;1.48;0.85;;;16.60;99.90;;;;;;5005487;28;20183;-75
2023/08/04 01:11:44;;;;;;;5.75;0.93;;;16.50;99.90;;;;;;5012014;28;20038;-75
2023/08/04 01:14:11;;;;;;;2.72;0.88;;;16.60;99.90;;;;;;5012523;28;20103;-75
2023/08/04 01:16:37;;;;;;;2.88;0.80;;;16.60;99.90;;;;;;4995662;28;20034;-75
2023/08/04 01:19:02;;;;;;;0.80;0.60;;;16.60;99.90;;;;;;4997634;28;20037;-75
2023/08/04 01:21:40;;;;;;;0.77;0.50;;;16.60;99.90;;;;;;5014470;28;20057;-77
2023/08/04 01:24:05;;;;;;;1.85;0.80;;;16.60;99.90;;;;;;5001061;28;20030;-78
2023/08/04 01:26:34;;;;;;;1.05;0.50;;;16.70;99.90;;;;;;5012452;28;20045;-77
2023/08/04 01:29:02;;;;;;;0.52;0.50;;;16.70;99.90;;;;;;4994451;28;20049;-77
2023/08/04 01:31:28;;;;;;;4.53;0.50;;;16.60;99.90;;;;;;4994549;28;20113;-77
2023/08/04 01:33:54;;;;;;;1.27;0.52;;;16.50;99.90;;;;;;4993791;28;20026;-79
2023/08/04 01:36:20;;;;;;;0.90;0.50;;;16.50;99.90;;;;;;4993382;28;20038;-77
2023/08/04 01:38:46;;;;;;;2.47;0.75;;;16.50;99.90;;;;;;4993163;28;20030;-78
2023/08/04 01:41:12;;;;;;;5.28;0.85;;;16.60;99.90;;;;;;4993231;28;20371;-78
2023/08/04 01:43:38;;;;;;;1.15;0.68;;;16.60;99.90;;;;;;4993813;28;20034;-78
2023/08/04 01:46:03;;;;;;;2.35;0.60;;;16.60;99.90;;;;;;4994309;28;20050;-78
2023/08/04 01:48:29;;;;;;;2.33;0.88;;;16.50;99.90;;;;;;4993020;28;20026;-78
2023/08/04 01:50:55;;;;;;;1.35;0.55;;;16.60;99.90;;;;;;4994575;28;20544;-77
2023/08/04 01:53:21;;;;;;;1.38;0.90;;;16.50;99.90;;;;;;4992211;28;20066;-77
2023/08/04 01:55:50;;;;;;;1.63;0.90;;;16.60;99.90;;;;;;4993289;28;20113;-77
2023/08/04 01:58:15;;;;;;;1.67;0.80;;;16.50;99.90;;;;;;4976189;28;20072;-77
2023/08/04 02:00:41;;;;;;;2.13;1.05;;;16.50;99.90;;;;;;4994245;28;20034;-77
2023/08/04 02:03:07;;;;;;;1.63;0.70;;;16.50;99.90;;;;;;4993100;28;20049;-78
2023/08/04 02:05:33;;;;;;;4.57;0.75;;;16.40;99.90;;;;;;4976800;28;20042;-78
2023/08/04 02:07:58;;;;;;;1.45;0.88;;;16.40;99.90;;;;;;4993839;28;20038;-78
2023/08/04 02:10:24;;;;;;;0.75;0.50;;;16.50;99.90;;;;;;4993802;28;20036;-78
2023/08/04 02:12:50;;;;;;;3.67;0.55;;;16.50;99.90;;;;;;4990883;28;20054;-78
2023/08/04 02:15:15;;;;;;;1.73;0.70;;;16.50;99.90;;;;;;5001277;28;20513;-78
2023/08/04 02:17:41;;;;;;;1.75;0.40;;;16.40;99.90;;;;;;4997393;28;20038;-78
2023/08/04 02:20:08;;;;;;;0.95;0.40;;;16.40;99.90;;;;;;4993798;28;20030;-78
2023/08/04 02:22:33;;;;;;;2.67;0.40;;;16.40;99.90;;;;;;4992920;28;20133;-77
2023/08/04 02:24:59;;;;;;;5.70;0.80;;;16.40;99.90;;;;;;4993796;28;20188;-78
2023/08/04 02:27:25;;;;;;;1.08;0.70;;;16.30;99.90;;;;;;4993438;28;20053;-77
2023/08/04 02:29:50;;;;;;;0.98;0.57;;;16.30;99.90;;;;;;4992059;28;20137;-78
2023/08/04 02:32:16;;;;;;;1.65;0.90;;;16.20;99.90;;;;;;4991904;28;20034;-77
2023/08/04 02:34:42;;;;;;;1.08;0.60;;;16.20;99.90;;;;;;4993315;28;20359;-78
2023/08/04 02:37:07;;;;;;;0.77;0.55;;;16.30;99.90;;;;;;4993521;28;20050;-79
2023/08/04 02:39:36;;;;;;;1.27;0.70;;;16.30;99.90;;;;;;4992236;28;20030;-77
2023/08/04 02:42:02;;;;;;;0.63;0.40;;;16.30;99.90;;;;;;4993500;28;20077;-77
2023/08/04 02:44:28;;;;;;;0.75;0.50;;;16.30;99.90;;;;;;4991343;28;20536;-77
2023/08/04 02:46:54;;;;;;;1.40;0.60;;;16.30;99.90;;;;;;4993171;28;20035;-78
2023/08/04 02:49:19;;;;;;;3.40;0.68;;;16.40;99.90;;;;;;4991879;28;20106;-77
2023/08/04 02:51:45;;;;;;;2.60;0.98;;;16.40;99.90;;;;;;4993432;28;20394;-77
2023/08/04 02:54:11;;;;;;;1.55;0.88;;;16.40;99.90;;;;;;4992124;28;20026;-77
2023/08/04 02:56:37;;;;;;;1.25;0.70;;;16.40;99.90;;;;;;4991747;28;20089;-78
2023/08/04 02:59:02;;;;;;;2.42;0.82;;;16.30;99.90;;;;;;4991597;28;20724;-77
2023/08/04 03:01:28;;;;;;;5.25;0.70;;;16.40;99.90;;;;;;4991669;28;20113;-77
2023/08/04 03:03:54;;;;;;;3.22;0.73;;;16.40;99.90;;;;;;4991958;28;20038;-77
2023/08/04 03:06:19;;;;;;;1.70;0.80;;;16.50;99.90;;;;;;4991515;28;20041;-77
2023/08/04 03:08:45;;;;;;;2.33;0.77;;;16.50;99.90;;;;;;4991862;28;20034;-78
2023/08/04 03:11:11;;;;;;;1.88;0.82;;;16.50;99.90;;;;;;4992827;28;20065;-78
2023/08/04 03:13:38;;;;;;;4.10;1.50;;;16.40;99.90;;;;;;4990549;28;20030;-79
2023/08/04 03:16:04;;;;;;;3.95;1.30;;;16.40;99.90;;;;;;5008525;28;20040;-78
2023/08/04 03:18:30;;;;;;;5.93;1.40;;;16.30;99.90;;;;;;5027456;28;20037;-78
2023/08/04 03:20:57;;;;;;;8.43;1.23;;;16.30;99.90;;;;;;5012495;28;20030;-79
2023/08/04 03:23:22;;;;;;;1.33;0.60;;;16.30;99.90;;;;;;5012421;28;20056;-79
2023/08/04 03:25:49;;;;;;;2.13;0.88;;;16.30;99.90;;;;;;5012228;28;20540;-78
2023/08/04 03:28:15;;;;;;;5.20;1.15;;;16.40;99.90;;;;;;5011718;28;20037;-77
2023/08/04 03:30:40;;;;;;;4.13;0.98;;;16.40;99.90;;;;;;5011878;28;20110;-78
2023/08/04 03:33:06;;;;;;;3.13;1.33;;;16.50;99.90;;;;;;5009941;28;20080;-78
2023/08/04 03:35:32;;;;;;;3.05;1.08;;;16.50;99.90;;;;;;5011514;28;20037;-78
2023/08/04 03:37:58;;;;;;;5.15;1.20;;;16.50;99.90;;;;;;5009473;28;20038;-78
2023/08/04 03:40:24;;;;;;;2.08;0.68;;;16.40;99.90;;;;;;5011652;28;20026;-78
2023/08/04 03:42:52;;;;;;;1.33;0.52;;;16.40;99.90;;;;;;5010024;28;20473;-78
2023/08/04 03:45:18;;;;;;;1.20;0.85;;;16.40;99.90;;;;;;5011593;28;20037;-78
2023/08/04 03:47:44;;;;;;;2.25;0.80;;;16.30;99.90;;;;;;5011740;28;20037;-79
2023/08/04 03:50:10;;;;;;;8.13;0.70;;;16.40;99.90;;;;;;5011502;28;20107;-78
2023/08/04 03:52:35;;;;;;;1.73;0.70;;;16.30;99.90;;;;;;5010649;28;20045;-78
2023/08/04 03:55:02;;;;;;;4.53;0.93;;;16.30;99.90;;;;;;5010448;28;20037;-78
2023/08/04 03:57:28;;;;;;;0.65;0.55;;;16.40;99.90;;;;;;5011186;28;20053;-78
2023/08/04 03:59:53;;;;;;;1.27;0.70;;;16.30;99.90;;;;;;5011890;28;20141;-78
2023/08/04 04:02:20;;;;;;;3.80;0.80;;;16.40;99.90;;;;;;5010656;28;20026;-78
2023/08/04 04:04:47;;;;;;;3.08;0.60;;;16.40;99.90;;;;;;5010033;28;20466;-78
2023/08/04 04:07:13;;;;;;;1.92;0.68;;;16.30;99.90;;;;;;5010053;28;20026;-80
2023/08/04 04:09:39;;;;;;;3.95;0.47;;;16.40;99.90;;;;;;5009781;28;20036;-79
2023/08/04 04:12:05;;;;;;;2.42;0.88;;;16.40;99.90;;;;;;5026067;28;20024;-78
2023/08/04 04:14:31;;;;;;;0.43;0.40;;;16.40;99.90;;;;;;5006022;28;20053;-78
2023/08/04 04:16:56;;;;;;;3.83;0.68;;;16.30;99.90;;;;;;5006632;28;20022;-78
2023/08/04 04:19:22;;;;;;;5.03;0.77;;;16.30;99.90;;;;;;4991274;28;20031;-78
2023/08/04 04:21:48;;;;;;;1.70;1.17;;;16.30;99.90;;;;;;4991400;28;20030;-78
2023/08/04 04:24:13;;;;;;;1.67;0.85;;;16.30;99.90;;;;;;4990644;28;20038;-78
2023/08/04 04:26:39;;;;;;;3.53;0.85;;;16.30;99.90;;;;;;4986256;28;20104;-78
2023/08/04 04:29:05;;;;;;;0.88;0.43;;;16.40;99.90;;;;;;5011846;23;20029;-77
2023/08/04 04:31:31;;;;;;;3.65;0.80;;;16.40;99.90;;;;;;5026088;28;20023;-77
2023/08/04 04:33:56;;;;;;;0.75;0.43;;;16.40;99.90;;;;;;5020781;28;20096;-77
2023/08/04 04:36:22;;;;;;;0.70;0.50;;;16.40;99.90;;;;;;5035064;28;20054;-80
2023/08/04 04:38:48;;;;;;;0.82;0.40;;;16.40;99.90;;;;;;5024992;28;20033;-79
2023/08/04 04:41:14;;;;;;;5.45;1.00;;;16.50;99.90;;;;;;5007961;28;20045;-79
2023/08/04 04:43:39;;;;;;;1.38;0.68;;;16.60;99.90;;;;;;5007811;28;20030;-78
2023/08/04 04:46:05;;;;;;;1.17;0.57;;;16.60;99.90;;;;;;5023314;28;20040;-77
2023/08/04 04:48:31;;;;;;;2.88;0.63;;;16.60;99.90;;;;;;5024219;28;20021;-77
2023/08/04 04:50:57;;;;;;;2.05;0.60;;;16.50;99.90;;;;;;5029233;28;20061;-77
2023/08/04 04:53:22;;;;;;;1.55;0.55;;;16.50;99.90;;;;;;5042028;28;20041;-76
2023/08/04 04:55:48;;;;;;;2.17;1.00;;;16.40;99.90;;;;;;5030374;28;20040;-76
2023/08/04 04:58:14;;;;;;;1.90;0.93;;;16.30;99.90;;;;;;5029576;28;20115;-76
2023/08/04 05:00:42;;;;;;;1.95;0.90;;;16.40;99.90;;;;;;5030421;28;20112;-77
2023/08/04 05:03:10;;;;;;;4.50;0.75;;;16.40;99.90;;;;;;5028758;28;20083;-76
2023/08/04 05:05:36;;;;;;;2.33;0.93;;;16.50;99.90;;;;;;5030684;28;20037;-76
2023/08/04 05:08:03;;;;;;;4.07;1.38;;;16.50;99.90;;;;;;5001475;28;20489;-76
2023/08/04 05:10:28;;;;;;;1.33;1.05;;;16.50;99.90;;;;;;5026999;28;20365;-74
2023/08/04 05:12:54;;;;;;;1.65;1.00;;;16.50;99.90;;;;;;5018533;28;20080;-72
2023/08/04 05:15:20;;;;;;;1.52;0.90;;;16.50;99.90;;;;;;5010545;28;20042;-73
2023/08/04 05:17:46;;;;;;;1.33;0.70;;;16.50;99.90;;;;;;5010855;28;20026;-74
2023/08/04 05:20:12;;;;;;;1.08;0.70;;;16.40;99.90;;;;;;5010571;28;20025;-73
2023/08/04 05:22:40;;;;;;;3.42;1.75;;;16.50;99.90;;;;;;5008873;28;20056;-74
2023/08/04 05:25:07;;;;;;;4.43;2.50;;;16.50;99.90;;;;;;5010771;28;20092;-74
2023/08/04 05:27:32;;;;;;;4.78;2.53;;;16.50;99.90;;;;;;5009375;28;20022;-73
2023/08/04 05:29:58;;;;;;;4.95;2.13;;;16.50;99.90;;;;;;5025565;28;20049;-74
2023/08/04 05:32:24;;;;;;;4.30;1.60;;;16.50;99.90;;;;;;5012132;28;20041;-73
2023/08/04 05:34:50;;;;;;;3.38;1.65;;;16.40;99.90;;;;;;5023185;28;20029;-73
2023/08/04 05:37:15;;;;;;;3.83;1.63;;;16.50;99.90;;;;;;5033912;28;20029;-74
2023/08/04 05:39:41;;;;;;;2.80;1.38;;;16.30;99.90;;;;;;5032278;28;20108;-74
2023/08/04 05:42:07;;;;;;;2.80;1.60;;;16.30;99.90;;;;;;5024252;28;20148;-76
2023/08/04 05:44:33;;;;;;;9.30;2.20;;;16.40;99.90;;;;;;5024645;28;20045;-73
2023/08/04 05:47:01;;;;;;;2.83;1.60;;;16.50;99.90;;;;;;5024932;28;20072;-73
2023/08/04 05:49:27;;;;;;;8.40;1.70;;;16.40;99.90;;;;;;5026356;28;20484;-73
2023/08/04 05:51:53;;;;;;;8.45;1.85;;;16.50;99.90;;;;;;5028801;28;20176;-72
2023/08/04 05:54:18;;;;;;;4.50;2.30;;;16.60;99.90;;;;;;5023495;28;20052;-74
2023/08/04 05:56:44;;;;;;;5.93;1.88;;;16.60;99.90;;;;;;5008982;28;20382;-73
2023/08/04 05:59:10;;;;;;;5.57;2.15;;;16.60;99.90;;;;;;5012369;28;20034;-74
2023/08/04 06:01:36;;;;;;;9.32;3.30;;;16.60;99.90;;;;;;5012102;28;20080;-73
2023/08/04 06:04:01;;;;;;;5.97;1.90;;;16.50;99.90;;;;;;5032426;28;20035;-82
2023/08/04 06:06:28;;;;;;;9.18;2.13;;;16.40;99.90;;;;;;5022683;28;20576;-75
2023/08/04 06:08:54;;;;;;;4.03;2.13;;;16.50;99.90;;;;;;5029305;28;20030;-75
2023/08/04 06:11:21;;;;;;;4.72;2.03;;;16.50;99.90;;;;;;5033490;28;20025;-73
2023/08/04 06:13:47;;;;;;;2.40;1.35;;;16.50;99.90;;;;;;5032129;28;20025;-74
2023/08/04 06:16:13;;;;;;;6.00;1.10;;;16.50;99.90;;;;;;5017507;28;20504;-73
2023/08/04 06:18:39;;;;;;;1.80;1.15;;;16.60;99.90;;;;;;5017940;28;20237;-74
2023/08/04 06:21:05;;;;;;;1.98;1.08;;;16.60;99.90;;;;;;5024375;28;20112;-74
2023/08/04 06:23:30;;;;;;;1.70;1.05;;;16.70;99.90;;;;;;5032297;28;20041;-73
2023/08/04 06:25:56;;;;;;;1.70;0.93;;;16.70;99.90;;;;;;5026593;28;20041;-72
2023/08/04 06:28:22;;;;;;;2.38;0.88;;;16.70;99.90;;;;;;5012330;28;20033;-73
2023/08/04 06:30:47;;;;;;;5.60;1.00;;;16.70;99.90;;;;;;5021950;28;20542;-73
2023/08/04 06:33:13;;;;;;;2.03;1.33;;;16.80;99.90;;;;;;5031498;28;20083;-73
2023/08/04 06:35:41;;;;;;;1.70;1.00;;;16.70;99.90;;;;;;5014320;28;20104;-73
2023/08/04 06:38:08;;;;;;;1.77;1.08;;;16.80;99.90;;;;;;5011197;28;20080;-75
2023/08/04 06:40:34;;;;;;;1.02;0.63;;;16.80;99.90;;;;;;5012459;28;20371;-73
2023/08/04 06:43:00;;;;;;;1.92;0.88;;;16.70;99.90;;;;;;5011243;28;20049;-74
2023/08/04 06:45:27;;;;;;;4.72;1.05;;;16.60;99.90;;;;;;5011109;28;20126;-74
2023/08/04 06:47:53;;;;;;;1.42;0.70;;;16.60;99.90;;;;;;5012480;28;20591;-75
2023/08/04 06:50:19;;;;;;;1.13;0.80;;;16.60;99.90;;;;;;5002904;28;20034;-75
2023/08/04 06:52:45;;;;;;;1.90;1.17;;;16.60;99.90;;;;;;5031622;28;20030;-75
2023/08/04 06:55:10;;;;;;;4.60;0.80;;;16.50;99.90;;;;;;5030907;28;20083;-74
2023/08/04 06:57:36;;;;;;;2.65;1.90;;;16.60;99.90;;;;;;5030758;28;20032;-75
2023/08/04 07:00:03;;;;;;;2.47;1.48;;;16.60;99.90;;;;;;5030259;28;20082;-74
2023/08/04 07:02:29;;;;;;;1.60;0.85;;;16.60;99.90;;;;;;5030322;28;20038;-74
2023/08/04 07:04:55;;;;;;;4.32;1.52;;;16.60;99.90;;;;;;5027008;28;20033;-74
2023/08/04 07:07:21;;;;;;;4.22;1.35;;;16.60;99.90;;;;;;5031809;28;20059;-74
2023/08/04 07:09:46;;;;;;;2.13;1.15;;;16.50;99.90;;;;;;5019347;28;20385;-74
2023/08/04 07:12:12;;;;;;;4.30;1.55;;;16.60;99.90;;;;;;5031522;28;20025;-74
2023/08/04 07:14:38;;;;;;;3.78;1.23;;;16.70;99.90;;;;;;5030115;28;20064;-73
2023/08/04 07:17:04;;;;;;;3.28;1.70;;;16.80;99.90;;;;;;5019927;28;20081;-74
2023/08/04 07:19:30;;;;;;;4.35;1.90;;;16.80;99.90;;;;;;5003890;28;20022;-74
2023/08/04 07:21:55;;;;;;;2.42;1.42;;;16.80;99.90;;;;;;5026059;28;20026;-73
2023/08/04 07:24:21;;;;;;;2.53;1.60;;;16.90;99.90;;;;;;5018583;28;20029;-72
2023/08/04 07:26:47;;;;;;;3.38;1.45;;;17.00;99.90;;;;;;5019651;28;20045;-72
2023/08/04 07:29:13;;;;;;;2.03;1.08;;;16.90;99.90;;;;;;5023251;28;20573;-73
2023/08/04 07:31:39;;;;;;;5.68;1.88;;;17.10;99.90;;;;;;5018299;28;20109;-74
2023/08/04 07:34:05;;;;;;;3.13;1.80;;;17.20;99.90;;;;;;5028796;28;20045;-74
2023/08/04 07:36:31;;;;;;;2.85;1.25;;;17.20;99.90;;;;;;5031349;28;20029;-74
2023/08/04 07:38:56;;;;;;;6.85;1.80;;;17.40;99.90;;;;;;5029953;28;20389;-73
2023/08/04 07:41:27;;;;;;;5.15;1.50;;;17.50;99.90;;;;;;5031280;28;20036;-74
2023/08/04 07:43:52;;;;;;;6.60;1.20;;;17.60;99.90;;;;;;5029652;28;20041;-73
2023/08/04 07:46:28;;;;;;;3.08;1.02;;;17.70;99.90;;;;;;5030841;28;20837;-73
2023/08/04 07:48:54;;;;;;;2.92;1.33;;;17.80;99.90;;;;;;5029769;28;20038;-74
2023/08/04 07:51:21;;;;;;;2.35;1.00;;;17.90;99.90;;;;;;5029935;28;20037;-74
2023/08/04 07:53:48;;;;;;;1.48;0.70;;;17.90;99.90;;;;;;5029122;28;20429;-74
2023/08/04 07:56:14;;;;;;;2.40;1.10;;;18.00;99.90;;;;;;5030796;28;20029;-74
2023/08/04 07:58:40;;;;;;;1.52;0.90;;;17.90;99.90;;;;;;5029466;28;20029;-72
2023/08/04 08:01:06;;;;;;;3.08;1.05;;;18.20;99.90;;;;;;5029634;28;20052;-73
2023/08/04 08:03:33;;;;;;;3.00;1.20;;;18.40;99.90;;;;;;5029118;28;20500;-73
2023/08/04 08:06:01;;;;;;;2.33;1.02;;;18.50;99.90;;;;;;5030779;28;20497;-73
2023/08/04 08:08:27;;;;;;;1.92;1.10;;;18.70;99.90;;;;;;5030658;28;20087;-74
2023/08/04 08:10:54;;;;;;;1.77;1.08;;;18.90;99.90;;;;;;5029458;28;20041;-74
2023/08/04 08:13:21;;;;;;;2.20;0.98;;;19.00;99.90;;;;;;5028485;28;20029;-73
2023/08/04 08:15:47;;;;;;;4.10;0.98;;;19.10;99.90;;;;;;5030620;28;20033;-74
2023/08/04 08:18:13;;;;;;;1.23;0.57;;;19.10;99.90;;;;;;5030561;28;20039;-74
2023/08/04 08:20:41;;;;;;;1.45;0.70;;;19.00;99.90;;;;;;5030473;28;20065;-74
2023/08/04 08:23:07;;;;;;;0.88;0.60;;;19.10;99.90;;;;;;5028560;28;20080;-74
2023/08/04 08:25:35;;;;;;;1.77;0.85;;;19.00;99.90;;;;;;5030620;28;20036;-73
2023/08/04 08:28:02;;;;;;;1.30;0.82;;;19.10;99.90;;;;;;5029622;28;20138;-73
2023/08/04 08:30:28;;;;;;;3.83;1.10;;;18.80;99.90;;;;;;5029012;28;20033;-73
2023/08/04 08:32:54;;;;;;;2.83;0.98;;;18.90;99.90;;;;;;5029862;28;20029;-73
2023/08/04 08:35:19;;;;;;;3.05;1.45;;;18.70;99.90;;;;;;5028458;28;20033;-73
2023/08/04 08:37:45;;;;;;;1.67;0.52;;;18.80;99.90;;;;;;5028984;28;20389;-74
2023/08/04 08:40:12;;;;;;;1.35;0.95;;;18.80;99.90;;;;;;5030371;28;20029;-74
2023/08/04 08:42:38;;;;;;;2.10;0.73;;;18.70;99.90;;;;;;5020485;28;20339;-74
2023/08/04 08:45:05;;;;;;;3.20;1.13;;;18.70;99.90;;;;;;5009134;28;20040;-74
2023/08/04 08:47:37;;;;;;;1.95;0.98;;;18.90;99.90;;;;;;5008997;28;20057;-74
2023/08/04 08:50:06;;;;;;;2.95;1.05;;;19.00;99.90;;;;;;5008968;28;20151;-74
2023/08/04 08:52:37;;;;;;;1.00;0.77;;;18.70;99.90;;;;;;5009856;28;20045;-74
2023/08/04 08:55:05;;;;;;;1.65;0.65;;;18.40;99.90;;;;;;5009215;28;20484;-75
2023/08/04 08:57:31;;;;;;;2.25;0.68;;;18.30;99.90;;;;;;5009462;28;20030;-74
2023/08/04 08:59:59;;;;;;;1.55;0.93;;;18.40;99.90;;;;;;5009159;28;20073;-75
2023/08/04 09:02:25;;;;;;;1.58;0.80;;;18.40;99.90;;;;;;5008494;28;20394;-75
2023/08/04 09:04:52;;;;;;;2.00;1.02;;;18.60;99.90;;;;;;5013901;28;20033;-74
2023/08/04 09:07:18;;;;;;;2.22;0.73;;;18.60;99.90;;;;;;5018628;28;20029;-75
2023/08/04 09:09:45;;;;;;;1.20;0.70;;;18.60;99.90;;;;;;5018518;28;20040;-73
2023/08/04 09:12:12;;;;;;;3.92;1.10;;;18.70;99.90;;;;;;5023529;28;20025;-74
2023/08/04 09:14:55;;;;;;;1.92;0.65;;;18.70;99.90;;;;;;5029094;28;20037;-74
2023/08/04 09:17:35;;;;;;;1.88;0.77;;;18.60;99.90;;;;;;5032702;28;20064;-74
2023/08/04 09:20:05;;;;;;;2.00;0.80;;;18.80;99.90;;;;;;5033564;28;20134;-75
2023/08/04 09:22:34;;;;;;;1.73;1.02;;;18.80;99.90;;;;;;5013807;28;20370;-74
2023/08/04 09:25:03;;;;;;;2.17;1.05;;;18.80;99.90;;;;;;5022027;28;20036;-74
2023/08/04 09:27:37;;;;;;;1.67;0.77;;;19.00;99.90;;;;;;5024203;28;20025;-73
2023/08/04 09:30:09;;;;;;;1.58;0.70;;;19.00;99.90;;;;;;5033464;28;20029;-73
2023/08/04 09:32:42;;;;;;;2.05;1.00;;;19.00;99.90;;;;;;5025524;28;20465;-73
2023/08/04 09:35:10;;;;;;;1.40;0.80;;;19.20;99.90;;;;;;5018469;28;20401;-73
2023/08/04 09:37:41;;;;;;;2.40;1.00;;;19.40;99.90;;;;;;5022423;28;20025;-74
2023/08/04 09:40:34;;;;;;;2.25;0.90;;;19.50;99.90;;;;;;5020361;28;20106;-73
2023/08/04 09:43:00;;;;;;;1.65;0.90;;;19.60;99.90;;;;;;5035870;28;20388;-72
2023/08/04 09:45:26;;;;;;;1.00;0.63;;;19.50;99.90;;;;;;5026665;28;20131;-72
2023/08/04 09:47:52;;;;;;;1.00;0.70;;;19.80;99.90;;;;;;5031666;28;20033;-73
2023/08/04 09:50:19;;;;;;;1.92;0.90;;;19.80;99.90;;;;;;5033036;28;20026;-74
2023/08/04 09:52:45;;;;;;;6.93;1.10;;;19.80;99.90;;;;;;5031032;28;20512;-73
2023/08/04 09:55:10;;;;;;;2.25;0.90;;;19.60;99.90;;;;;;5032917;28;20128;-73
2023/08/04 09:57:47;;;;;;;2.30;1.20;;;19.20;99.90;;;;;;5031938;28;20048;-73
2023/08/04 10:00:14;;;;;;;1.50;0.68;;;19.20;99.90;;;;;;5019790;28;20045;-72
2023/08/04 10:02:40;;;;;;;1.80;1.00;;;19.40;99.90;;;;;;5011180;28;20500;-73
2023/08/04 10:05:07;;;;;;;3.10;1.20;;;19.60;99.90;;;;;;5023967;28;20400;-74
2023/08/04 10:07:34;;;;;;;1.63;0.93;;;19.50;99.90;;;;;;5032790;28;20030;-74
2023/08/04 10:10:03;;;;;;;3.53;1.05;;;19.50;99.90;;;;;;5031592;28;20045;-73
2023/08/04 10:12:30;;;;;;;2.60;0.98;;;19.60;99.90;;;;;;5031936;28;20041;-74
2023/08/04 10:14:57;;;;;;;4.90;1.10;;;20.00;99.90;;;;;;5032641;28;20575;-74
2023/08/04 10:17:23;;;;;;;4.82;1.38;;;19.90;99.90;;;;;;5031013;28;20043;-75
2023/08/04 10:19:59;;;;;;;3.63;1.20;;;19.50;99.90;;;;;;5024697;28;20381;-74
2023/08/04 10:22:27;;;;;;;4.25;1.00;;;20.10;99.90;;;;;;5022087;28;20486;-74
2023/08/04 10:24:53;;;;;;;1.77;0.70;;;20.30;99.90;;;;;;5024681;28;20045;-73
2023/08/04 10:27:21;;;;;;;2.78;1.00;;;20.70;99.90;;;;;;5032676;28;20037;-71
2023/08/04 10:30:11;;;;;;;2.97;1.10;;;20.90;99.90;;;;;;5050737;22;20084;-78
2023/08/04 10:32:39;;;;;;;6.68;2.33;;;21.00;99.90;;;;;;5023056;28;20036;-74
2023/08/04 10:35:16;;;;;;;3.38;1.80;;;20.80;99.90;;;;;;5022559;28;20020;-77
2023/08/04 10:37:55;;;;;;;4.45;2.40;;;20.30;99.90;;;;;;5040064;28;20029;-77
2023/08/04 10:40:32;;;;;;;7.43;2.33;;;20.00;99.90;;;;;;5059643;28;20496;-76
2023/08/04 10:43:08;;;;;;;6.72;2.22;;;19.80;99.90;;;;;;5019498;28;20484;-77
2023/08/04 10:46:01;;;;;;;5.05;2.20;;;19.80;99.90;;;;;;5048148;28;20028;-76
2023/08/04 10:48:27;;;;;;;5.18;2.35;;;19.70;99.90;;;;;;5027709;28;20036;-82
2023/08/04 10:50:52;;;;;;;4.07;2.35;;;19.60;99.90;;;;;;5034195;28;20033;-81
2023/08/04 10:53:18;;;;;;;6.35;2.00;;;19.50;99.90;;;;;;5015821;28;20032;-81
2023/08/04 10:55:55;;;;;;;2.92;2.05;;;19.30;99.90;;;;;;5016359;28;20026;-83
2023/08/04 10:58:23;;;;;;;5.90;2.38;;;19.20;99.90;;;;;;5012479;28;20022;-78
2023/08/04 11:00:51;;;;;;;8.98;2.28;;;19.30;99.90;;;;;;5014280;28;20168;-77
2023/08/04 11:03:33;;;;;;;4.70;2.60;;;19.50;99.90;;;;;;5013548;28;20040;-78
2023/08/04 11:05:59;;;;;;;5.20;2.58;;;19.90;99.90;;;;;;5034878;28;20037;-76
2023/08/04 11:08:25;;;;;;;6.72;2.28;;;20.30;99.90;;;;;;5053477;28;20063;-79
2023/08/04 11:10:55;;;;;;;7.50;2.25;;;20.50;99.90;;;;;;5056407;28;20035;-80
2023/08/04 11:13:23;;;;;;;3.88;1.83;;;20.70;99.90;;;;;;5027704;28;20078;-79
2023/08/04 11:15:53;;;;;;;3.20;1.95;;;20.80;99.90;;;;;;5030602;28;20024;-76
2023/08/04 11:18:29;;;;;;;4.33;1.70;;;20.70;99.90;;;;;;5011451;28;20051;-75
2023/08/04 11:21:02;;;;;;;6.70;2.20;;;20.70;99.90;;;;;;5024848;28;20036;-74
2023/08/04 11:23:30;;;;;;;3.15;1.60;;;20.90;99.90;;;;;;5028749;28;20025;-76
2023/08/04 11:25:58;;;;;;;5.22;1.85;;;20.90;99.90;;;;;;5036727;28;20039;-75
2023/08/04 11:28:24;;;;;;;3.33;1.92;;;21.00;99.90;;;;;;5036025;28;20056;-75
2023/08/04 11:30:50;;;;;;;4.40;2.47;;;21.00;99.90;;;;;;5017847;28;20037;-76
2023/08/04 11:33:16;;;;;;;3.75;1.90;;;21.20;99.90;;;;;;5034851;28;20075;-77
2023/08/04 11:35:44;;;;;;;3.72;1.77;;;21.10;99.90;;;;;;5034807;28;20028;-74
2023/08/04 11:38:11;;;;;;;2.80;1.60;;;21.10;99.90;;;;;;5053188;28;20025;-75
2023/08/04 11:41:02;;;;;;;3.03;1.55;;;21.40;99.90;;;;;;5034493;28;20051;-76
2023/08/04 11:43:30;;;;;;;3.30;1.42;;;21.60;99.90;;;;;;5052541;28;20029;-76
2023/08/04 11:45:57;;;;;;;2.28;1.40;;;21.90;99.90;;;;;;5033855;28;20461;-75
2023/08/04 11:48:23;;;;;;;5.07;1.85;;;22.20;99.90;;;;;;5034118;28;20039;-75
2023/08/04 11:50:51;;;;;;;3.17;1.65;;;22.40;99.90;;;;;;5033053;28;20078;-73
2023/08/04 11:53:18;;;;;;;3.28;1.40;;;22.60;99.90;;;;;;5050146;28;20424;-76
2023/08/04 11:55:54;;;;;;;2.63;1.55;;;22.40;99.90;;;;;;5033393;28;20029;-76
2023/08/04 11:58:35;;;;;;;3.50;1.30;;;22.40;99.90;;;;;;5032752;28;20061;-73
2023/08/04 12:01:05;;;;;;;4.70;1.65;;;22.50;99.90;;;;;;5036558;28;20041;-75
2023/08/04 12:03:47;;;;;;;2.83;1.80;;;22.60;99.90;;;;;;5034763;28;20040;-75
2023/08/04 12:06:24;;;;;;;3.85;1.83;;;22.80;99.90;;;;;;5038196;28;20041;-74
2023/08/04 12:08:55;;;;;;;4.28;1.73;;;23.00;99.90;;;;;;5001311;28;20040;-75
2023/08/04 12:11:23;;;;;;;3.30;1.58;;;23.00;99.90;;;;;;5028506;28;20029;-79
2023/08/04 12:13:50;;;;;;;3.05;1.50;;;23.10;99.90;;;;;;5028626;28;20187;-78
2023/08/04 12:16:19;;;;;;;2.78;1.38;;;23.10;99.90;;;;;;5015492;28;20037;-78
2023/08/04 12:18:45;;;;;;;2.53;1.45;;;23.00;99.90;;;;;;4999187;28;20478;-82
2023/08/04 12:21:15;;;;;;;3.55;1.85;;;23.00;99.90;;;;;;4992750;28;20080;-81
2023/08/04 12:23:48;;;;;;;3.10;1.40;;;23.20;99.90;;;;;;4993054;28;20516;-81
2023/08/04 12:26:15;;;;;;;7.50;2.22;;;23.50;99.90;;;;;;5031031;28;20039;-80
2023/08/04 12:28:40;;;;;;;4.13;1.70;;;23.90;99.90;;;;;;5013278;28;20029;-82
2023/08/04 12:31:06;;;;;;;2.72;1.48;;;24.20;99.90;;;;;;5012802;28;20505;-83
2023/08/04 12:33:32;;;;;;;4.22;2.25;;;24.00;99.90;;;;;;5018750;28;20552;-82
2023/08/04 12:35:57;;;;;;;5.07;1.75;;;23.80;99.90;;;;;;5049461;28;20032;-82
2023/08/04 12:38:23;;;;;;;3.80;1.75;;;23.70;99.90;;;;;;5047588;28;20029;-82
2023/08/04 12:40:49;;;;;;;4.03;1.40;;;24.00;99.90;;;;;;5030321;28;20520;-79
2023/08/04 12:43:15;;;;;;;3.45;1.75;;;24.10;99.90;;;;;;5029967;28;20037;-79
2023/08/04 12:45:40;;;;;;;3.22;1.40;;;24.60;99.90;;;;;;5030536;28;20434;-81
2023/08/04 12:48:06;;;;;;;5.10;1.70;;;24.60;99.90;;;;;;5029996;28;20045;-79